sensor_id;sensor_type;location;lat;lon;timestamp;P1;durP1;ratioP1;P2;durP2;ratioP2
15451;SDS011;7827;53.594;9.938;2023-01-01T00:00:43;26.55;;;15.93;;
15451;SDS011;7827;53.594;9.938;2023-01-01T00:03:11;18.23;;;9.43;;
15451;SDS011;7827;53.594;9.938;2023-01-01T00:05:39;22.80;;;10.50;;
15451;SDS011;7827;53.594;9.938;2023-01-01T00:08:09;22.05;;;10.88;;
15451;SDS011;7827;53.594;9.938;2023-01-01T00:10:37;17.65;;;7.90;;
15451;SDS011;7827;53.594;9.938;2023-01-01T00:13:05;20.88;;;7.13;;
15451;SDS011;7827;53.594;9.938;2023-01-01T00:15:34;18.95;;;7.13;;
15451;SDS011;7827;53.594;9.938;2023-01-01T00:18:02;12.40;;;5.40;;
15451;SDS011;7827;53.594;9.938;2023-01-01T00:20:31;13.27;;;5.95;;
15451;SDS011;7827;53.594;9.938;2023-01-01T00:23:02;9.73;;;5.55;;
15451;SDS011;7827;53.594;9.938;2023-01-01T00:25:30;11.63;;;6.38;;
15451;SDS011;7827;53.594;9.938;2023-01-01T00:27:59;11.93;;;6.22;;
15451;SDS011;7827;53.594;9.938;2023-01-01T00:30:27;14.85;;;7.18;;
15451;SDS011;7827;53.594;9.938;2023-01-01T00:32:55;15.93;;;6.53;;
15451;SDS011;7827;53.594;9.938;2023-01-01T00:35:24;14.02;;;7.03;;
15451;SDS011;7827;53.594;9.938;2023-01-01T00:37:53;18.67;;;8.20;;
15451;SDS011;7827;53.594;9.938;2023-01-01T00:40:23;13.73;;;7.15;;
15451;SDS011;7827;53.594;9.938;2023-01-01T00:42:51;15.95;;;8.57;;
15451;SDS011;7827;53.594;9.938;2023-01-01T00:45:20;18.05;;;8.20;;
15451;SDS011;7827;53.594;9.938;2023-01-01T00:47:49;20.00;;;7.03;;
15451;SDS011;7827;53.594;9.938;2023-01-01T00:50:18;15.95;;;7.40;;
15451;SDS011;7827;53.594;9.938;2023-01-01T00:52:48;15.27;;;6.95;;
15451;SDS011;7827;53.594;9.938;2023-01-01T00:55:16;14.50;;;6.65;;
15451;SDS011;7827;53.594;9.938;2023-01-01T00:57:46;13.98;;;7.30;;
15451;SDS011;7827;53.594;9.938;2023-01-01T01:00:15;15.23;;;7.50;;
15451;SDS011;7827;53.594;9.938;2023-01-01T01:02:43;19.73;;;6.78;;
15451;SDS011;7827;53.594;9.938;2023-01-01T01:05:12;22.40;;;7.10;;
15451;SDS011;7827;53.594;9.938;2023-01-01T01:07:40;18.52;;;7.05;;
15451;SDS011;7827;53.594;9.938;2023-01-01T01:10:09;18.13;;;7.22;;
15451;SDS011;7827;53.594;9.938;2023-01-01T01:12:38;16.50;;;6.40;;
15451;SDS011;7827;53.594;9.938;2023-01-01T01:15:09;13.32;;;6.55;;
15451;SDS011;7827;53.594;9.938;2023-01-01T01:17:37;11.48;;;5.97;;
15451;SDS011;7827;53.594;9.938;2023-01-01T01:20:06;16.60;;;7.07;;
15451;SDS011;7827;53.594;9.938;2023-01-01T01:22:35;14.95;;;6.35;;
15451;SDS011;7827;53.594;9.938;2023-01-01T01:25:04;17.42;;;5.72;;
15451;SDS011;7827;53.594;9.938;2023-01-01T01:27:34;17.27;;;6.43;;
15451;SDS011;7827;53.594;9.938;2023-01-01T01:30:02;19.38;;;6.65;;
15451;SDS011;7827;53.594;9.938;2023-01-01T01:32:33;13.88;;;5.43;;
15451;SDS011;7827;53.594;9.938;2023-01-01T01:35:02;17.83;;;6.35;;
15451;SDS011;7827;53.594;9.938;2023-01-01T01:37:31;15.65;;;6.13;;
15451;SDS011;7827;53.594;9.938;2023-01-01T01:39:59;16.05;;;5.80;;
15451;SDS011;7827;53.594;9.938;2023-01-01T01:42:27;15.93;;;5.78;;
15451;SDS011;7827;53.594;9.938;2023-01-01T01:44:56;9.65;;;4.97;;
15451;SDS011;7827;53.594;9.938;2023-01-01T01:47:27;16.15;;;7.00;;
15451;SDS011;7827;53.594;9.938;2023-01-01T01:50:03;11.60;;;5.25;;
15451;SDS011;7827;53.594;9.938;2023-01-01T01:52:40;12.40;;;5.50;;
15451;SDS011;7827;53.594;9.938;2023-01-01T01:55:14;16.27;;;5.75;;
15451;SDS011;7827;53.594;9.938;2023-01-01T01:57:42;15.10;;;5.10;;
15451;SDS011;7827;53.594;9.938;2023-01-01T02:00:11;17.75;;;5.78;;
15451;SDS011;7827;53.594;9.938;2023-01-01T02:02:44;15.73;;;5.47;;
15451;SDS011;7827;53.594;9.938;2023-01-01T02:05:20;10.95;;;5.30;;
15451;SDS011;7827;53.594;9.938;2023-01-01T02:07:51;19.02;;;5.75;;
15451;SDS011;7827;53.594;9.938;2023-01-01T02:10:21;9.23;;;4.82;;
15451;SDS011;7827;53.594;9.938;2023-01-01T02:12:49;15.32;;;5.20;;
15451;SDS011;7827;53.594;9.938;2023-01-01T02:15:18;15.73;;;5.70;;
15451;SDS011;7827;53.594;9.938;2023-01-01T02:17:51;13.90;;;5.78;;
15451;SDS011;7827;53.594;9.938;2023-01-01T02:20:31;12.48;;;4.95;;
15451;SDS011;7827;53.594;9.938;2023-01-01T02:23:24;12.50;;;5.28;;
15451;SDS011;7827;53.594;9.938;2023-01-01T02:26:07;15.98;;;5.65;;
15451;SDS011;7827;53.594;9.938;2023-01-01T02:29:08;14.05;;;5.35;;
15451;SDS011;7827;53.594;9.938;2023-01-01T02:31:52;13.55;;;5.85;;
15451;SDS011;7827;53.594;9.938;2023-01-01T02:34:28;10.10;;;5.47;;
15451;SDS011;7827;53.594;9.938;2023-01-01T02:37:03;12.63;;;5.55;;
15451;SDS011;7827;53.594;9.938;2023-01-01T02:39:36;14.23;;;5.20;;
15451;SDS011;7827;53.594;9.938;2023-01-01T02:42:12;14.15;;;5.93;;
15451;SDS011;7827;53.594;9.938;2023-01-01T02:44:43;12.60;;;5.50;;
15451;SDS011;7827;53.594;9.938;2023-01-01T02:47:17;12.98;;;5.22;;
15451;SDS011;7827;53.594;9.938;2023-01-01T02:49:49;16.65;;;7.30;;
15451;SDS011;7827;53.594;9.938;2023-01-01T02:55:43;12.27;;;5.68;;
15451;SDS011;7827;53.594;9.938;2023-01-01T02:58:22;13.98;;;6.50;;
15451;SDS011;7827;53.594;9.938;2023-01-01T03:01:18;23.30;;;6.13;;
15451;SDS011;7827;53.594;9.938;2023-01-01T03:03:55;10.63;;;5.82;;
15451;SDS011;7827;53.594;9.938;2023-01-01T03:06:36;15.32;;;6.60;;
15451;SDS011;7827;53.594;9.938;2023-01-01T03:09:14;12.07;;;6.43;;
15451;SDS011;7827;53.594;9.938;2023-01-01T03:11:55;12.45;;;6.35;;
15451;SDS011;7827;53.594;9.938;2023-01-01T03:14:34;10.68;;;5.93;;
15451;SDS011;7827;53.594;9.938;2023-01-01T03:17:14;12.70;;;6.35;;
15451;SDS011;7827;53.594;9.938;2023-01-01T03:19:54;16.70;;;7.13;;
15451;SDS011;7827;53.594;9.938;2023-01-01T03:22:29;18.92;;;7.45;;
15451;SDS011;7827;53.594;9.938;2023-01-01T03:25:02;12.05;;;6.68;;
15451;SDS011;7827;53.594;9.938;2023-01-01T03:27:36;14.00;;;7.05;;
15451;SDS011;7827;53.594;9.938;2023-01-01T03:30:10;14.45;;;7.65;;
15451;SDS011;7827;53.594;9.938;2023-01-01T03:32:46;15.88;;;7.43;;
15451;SDS011;7827;53.594;9.938;2023-01-01T03:35:27;13.57;;;8.13;;
15451;SDS011;7827;53.594;9.938;2023-01-01T03:38:04;12.10;;;8.13;;
15451;SDS011;7827;53.594;9.938;2023-01-01T03:40:40;21.05;;;8.35;;
15451;SDS011;7827;53.594;9.938;2023-01-01T03:43:13;12.27;;;6.88;;
15451;SDS011;7827;53.594;9.938;2023-01-01T03:45:47;11.75;;;7.75;;
15451;SDS011;7827;53.594;9.938;2023-01-01T03:48:20;14.32;;;8.38;;
15451;SDS011;7827;53.594;9.938;2023-01-01T03:50:52;17.42;;;8.18;;
15451;SDS011;7827;53.594;9.938;2023-01-01T03:53:35;16.30;;;8.23;;
15451;SDS011;7827;53.594;9.938;2023-01-01T03:56:11;18.80;;;9.52;;
15451;SDS011;7827;53.594;9.938;2023-01-01T03:58:44;15.07;;;8.18;;
15451;SDS011;7827;53.594;9.938;2023-01-01T04:01:22;19.92;;;8.13;;
15451;SDS011;7827;53.594;9.938;2023-01-01T04:03:58;17.15;;;8.40;;
15451;SDS011;7827;53.594;9.938;2023-01-01T04:06:31;11.23;;;8.00;;
15451;SDS011;7827;53.594;9.938;2023-01-01T04:09:00;14.15;;;7.70;;
15451;SDS011;7827;53.594;9.938;2023-01-01T04:11:32;14.85;;;7.43;;
15451;SDS011;7827;53.594;9.938;2023-01-01T04:14:27;16.80;;;7.60;;
15451;SDS011;7827;53.594;9.938;2023-01-01T04:16:56;14.52;;;7.53;;
15451;SDS011;7827;53.594;9.938;2023-01-01T04:19:26;12.32;;;6.63;;
15451;SDS011;7827;53.594;9.938;2023-01-01T04:21:55;14.70;;;7.32;;
15451;SDS011;7827;53.594;9.938;2023-01-01T04:24:24;14.68;;;7.70;;
15451;SDS011;7827;53.594;9.938;2023-01-01T04:26:52;15.80;;;7.45;;
15451;SDS011;7827;53.594;9.938;2023-01-01T04:29:21;13.25;;;6.72;;
15451;SDS011;7827;53.594;9.938;2023-01-01T04:31:50;13.65;;;7.55;;
15451;SDS011;7827;53.594;9.938;2023-01-01T04:34:18;13.23;;;7.00;;
15451;SDS011;7827;53.594;9.938;2023-01-01T04:36:48;13.93;;;7.32;;
15451;SDS011;7827;53.594;9.938;2023-01-01T04:39:16;18.10;;;6.70;;
15451;SDS011;7827;53.594;9.938;2023-01-01T04:41:45;15.48;;;6.35;;
15451;SDS011;7827;53.594;9.938;2023-01-01T04:44:13;15.27;;;6.28;;
15451;SDS011;7827;53.594;9.938;2023-01-01T04:46:42;15.13;;;6.50;;
15451;SDS011;7827;53.594;9.938;2023-01-01T04:49:10;14.73;;;6.22;;
15451;SDS011;7827;53.594;9.938;2023-01-01T04:51:38;13.05;;;5.95;;
15451;SDS011;7827;53.594;9.938;2023-01-01T04:54:08;13.48;;;6.10;;
15451;SDS011;7827;53.594;9.938;2023-01-01T04:56:36;12.75;;;5.80;;
15451;SDS011;7827;53.594;9.938;2023-01-01T04:59:05;11.77;;;5.57;;
15451;SDS011;7827;53.594;9.938;2023-01-01T05:01:33;12.32;;;6.03;;
15451;SDS011;7827;53.594;9.938;2023-01-01T05:04:01;14.70;;;6.22;;
15451;SDS011;7827;53.594;9.938;2023-01-01T05:06:30;7.47;;;4.97;;
15451;SDS011;7827;53.594;9.938;2023-01-01T05:08:58;10.60;;;5.85;;
15451;SDS011;7827;53.594;9.938;2023-01-01T05:11:31;15.13;;;5.25;;
15451;SDS011;7827;53.594;9.938;2023-01-01T05:14:00;13.07;;;5.70;;
15451;SDS011;7827;53.594;9.938;2023-01-01T05:16:31;16.08;;;5.30;;
15451;SDS011;7827;53.594;9.938;2023-01-01T05:19:02;10.23;;;5.22;;
15451;SDS011;7827;53.594;9.938;2023-01-01T05:21:32;12.38;;;4.70;;
15451;SDS011;7827;53.594;9.938;2023-01-01T05:24:03;8.02;;;4.55;;
15451;SDS011;7827;53.594;9.938;2023-01-01T05:26:36;10.15;;;4.28;;
15451;SDS011;7827;53.594;9.938;2023-01-01T05:29:07;10.93;;;4.82;;
15451;SDS011;7827;53.594;9.938;2023-01-01T05:31:42;8.00;;;4.28;;
15451;SDS011;7827;53.594;9.938;2023-01-01T05:34:12;9.77;;;4.57;;
15451;SDS011;7827;53.594;9.938;2023-01-01T05:36:41;8.60;;;4.25;;
15451;SDS011;7827;53.594;9.938;2023-01-01T05:39:10;7.55;;;4.53;;
15451;SDS011;7827;53.594;9.938;2023-01-01T05:41:40;13.02;;;4.32;;
15451;SDS011;7827;53.594;9.938;2023-01-01T05:44:09;9.52;;;4.30;;
15451;SDS011;7827;53.594;9.938;2023-01-01T05:46:37;12.23;;;4.15;;
15451;SDS011;7827;53.594;9.938;2023-01-01T05:49:08;10.70;;;4.32;;
15451;SDS011;7827;53.594;9.938;2023-01-01T05:51:37;16.45;;;5.80;;
15451;SDS011;7827;53.594;9.938;2023-01-01T05:54:05;11.35;;;4.60;;
15451;SDS011;7827;53.594;9.938;2023-01-01T05:56:33;10.32;;;4.03;;
15451;SDS011;7827;53.594;9.938;2023-01-01T05:59:03;12.93;;;4.63;;
15451;SDS011;7827;53.594;9.938;2023-01-01T06:01:31;12.40;;;4.50;;
15451;SDS011;7827;53.594;9.938;2023-01-01T06:04:07;9.35;;;3.92;;
15451;SDS011;7827;53.594;9.938;2023-01-01T06:06:35;11.18;;;4.78;;
15451;SDS011;7827;53.594;9.938;2023-01-01T06:09:04;8.52;;;4.05;;
15451;SDS011;7827;53.594;9.938;2023-01-01T06:11:32;12.25;;;4.03;;
15451;SDS011;7827;53.594;9.938;2023-01-01T06:14:01;9.52;;;4.18;;
15451;SDS011;7827;53.594;9.938;2023-01-01T06:16:30;7.60;;;3.58;;
15451;SDS011;7827;53.594;9.938;2023-01-01T06:18:59;8.80;;;4.00;;
15451;SDS011;7827;53.594;9.938;2023-01-01T06:21:27;9.18;;;4.15;;
15451;SDS011;7827;53.594;9.938;2023-01-01T06:23:57;7.75;;;3.50;;
15451;SDS011;7827;53.594;9.938;2023-01-01T06:26:27;10.63;;;4.40;;
15451;SDS011;7827;53.594;9.938;2023-01-01T06:28:59;6.43;;;3.20;;
15451;SDS011;7827;53.594;9.938;2023-01-01T06:31:30;10.80;;;3.97;;
15451;SDS011;7827;53.594;9.938;2023-01-01T06:34:06;8.43;;;3.67;;
15451;SDS011;7827;53.594;9.938;2023-01-01T06:36:35;10.00;;;4.15;;
15451;SDS011;7827;53.594;9.938;2023-01-01T06:39:03;9.38;;;3.63;;
15451;SDS011;7827;53.594;9.938;2023-01-01T06:41:32;11.70;;;4.32;;
15451;SDS011;7827;53.594;9.938;2023-01-01T06:44:00;7.95;;;3.42;;
15451;SDS011;7827;53.594;9.938;2023-01-01T06:46:31;10.15;;;3.65;;
15451;SDS011;7827;53.594;9.938;2023-01-01T06:49:02;9.80;;;3.80;;
15451;SDS011;7827;53.594;9.938;2023-01-01T06:51:35;8.65;;;3.80;;
15451;SDS011;7827;53.594;9.938;2023-01-01T06:54:05;8.82;;;4.00;;
15451;SDS011;7827;53.594;9.938;2023-01-01T06:56:35;7.32;;;3.55;;
15451;SDS011;7827;53.594;9.938;2023-01-01T06:59:04;7.82;;;3.67;;
15451;SDS011;7827;53.594;9.938;2023-01-01T07:01:35;11.63;;;3.92;;
15451;SDS011;7827;53.594;9.938;2023-01-01T07:04:11;10.27;;;3.90;;
15451;SDS011;7827;53.594;9.938;2023-01-01T07:06:41;6.40;;;3.20;;
15451;SDS011;7827;53.594;9.938;2023-01-01T07:09:09;9.25;;;3.35;;
15451;SDS011;7827;53.594;9.938;2023-01-01T07:11:38;7.35;;;3.30;;
15451;SDS011;7827;53.594;9.938;2023-01-01T07:14:06;6.38;;;3.72;;
15451;SDS011;7827;53.594;9.938;2023-01-01T07:16:35;7.20;;;3.35;;
15451;SDS011;7827;53.594;9.938;2023-01-01T07:19:04;10.23;;;3.72;;
15451;SDS011;7827;53.594;9.938;2023-01-01T07:21:33;7.90;;;3.72;;
15451;SDS011;7827;53.594;9.938;2023-01-01T07:24:09;9.15;;;3.25;;
15451;SDS011;7827;53.594;9.938;2023-01-01T07:26:39;5.93;;;2.80;;
15451;SDS011;7827;53.594;9.938;2023-01-01T07:29:09;13.80;;;3.20;;
15451;SDS011;7827;53.594;9.938;2023-01-01T07:31:40;7.68;;;2.92;;
15451;SDS011;7827;53.594;9.938;2023-01-01T07:34:11;8.60;;;2.88;;
15451;SDS011;7827;53.594;9.938;2023-01-01T07:36:42;10.95;;;2.92;;
15451;SDS011;7827;53.594;9.938;2023-01-01T07:39:10;9.57;;;3.10;;
15451;SDS011;7827;53.594;9.938;2023-01-01T07:41:39;9.15;;;3.83;;
15451;SDS011;7827;53.594;9.938;2023-01-01T07:44:07;6.88;;;3.00;;
15451;SDS011;7827;53.594;9.938;2023-01-01T07:46:35;7.65;;;3.05;;
15451;SDS011;7827;53.594;9.938;2023-01-01T07:49:05;6.03;;;2.88;;
15451;SDS011;7827;53.594;9.938;2023-01-01T07:51:33;5.68;;;2.88;;
15451;SDS011;7827;53.594;9.938;2023-01-01T07:54:02;7.47;;;2.88;;
15451;SDS011;7827;53.594;9.938;2023-01-01T07:56:33;7.95;;;3.05;;
15451;SDS011;7827;53.594;9.938;2023-01-01T07:59:02;9.85;;;2.50;;
15451;SDS011;7827;53.594;9.938;2023-01-01T08:01:33;6.28;;;2.40;;
15451;SDS011;7827;53.594;9.938;2023-01-01T08:04:03;6.85;;;2.38;;
15451;SDS011;7827;53.594;9.938;2023-01-01T08:06:33;8.43;;;2.40;;
15451;SDS011;7827;53.594;9.938;2023-01-01T08:09:02;6.97;;;2.80;;
15451;SDS011;7827;53.594;9.938;2023-01-01T08:11:30;6.88;;;2.30;;
15451;SDS011;7827;53.594;9.938;2023-01-01T08:13:59;7.97;;;2.05;;
15451;SDS011;7827;53.594;9.938;2023-01-01T08:16:28;4.93;;;2.20;;
15451;SDS011;7827;53.594;9.938;2023-01-01T08:18:57;3.42;;;2.30;;
15451;SDS011;7827;53.594;9.938;2023-01-01T08:21:27;3.58;;;2.15;;
15451;SDS011;7827;53.594;9.938;2023-01-01T08:23:55;5.13;;;2.40;;
15451;SDS011;7827;53.594;9.938;2023-01-01T08:26:27;5.30;;;2.15;;
15451;SDS011;7827;53.594;9.938;2023-01-01T08:29:00;8.73;;;2.50;;
15451;SDS011;7827;53.594;9.938;2023-01-01T08:31:31;4.22;;;2.10;;
15451;SDS011;7827;53.594;9.938;2023-01-01T08:34:00;6.22;;;1.83;;
15451;SDS011;7827;53.594;9.938;2023-01-01T08:36:30;5.10;;;1.80;;
15451;SDS011;7827;53.594;9.938;2023-01-01T08:38:58;5.00;;;1.80;;
15451;SDS011;7827;53.594;9.938;2023-01-01T08:41:27;5.05;;;2.17;;
15451;SDS011;7827;53.594;9.938;2023-01-01T08:43:55;4.63;;;2.05;;
15451;SDS011;7827;53.594;9.938;2023-01-01T08:46:23;5.43;;;1.90;;
15451;SDS011;7827;53.594;9.938;2023-01-01T08:48:52;8.40;;;2.00;;
15451;SDS011;7827;53.594;9.938;2023-01-01T08:51:20;3.70;;;1.98;;
15451;SDS011;7827;53.594;9.938;2023-01-01T08:53:50;4.85;;;1.88;;
15451;SDS011;7827;53.594;9.938;2023-01-01T08:56:18;4.75;;;2.45;;
15451;SDS011;7827;53.594;9.938;2023-01-01T08:58:47;5.28;;;1.92;;
15451;SDS011;7827;53.594;9.938;2023-01-01T09:01:15;5.63;;;1.75;;
15451;SDS011;7827;53.594;9.938;2023-01-01T09:03:47;2.63;;;1.52;;
15451;SDS011;7827;53.594;9.938;2023-01-01T09:06:15;6.25;;;2.08;;
15451;SDS011;7827;53.594;9.938;2023-01-01T09:08:43;7.18;;;1.80;;
15451;SDS011;7827;53.594;9.938;2023-01-01T09:11:19;3.75;;;1.70;;
15451;SDS011;7827;53.594;9.938;2023-01-01T09:13:51;7.93;;;2.40;;
15451;SDS011;7827;53.594;9.938;2023-01-01T09:16:20;3.55;;;1.60;;
15451;SDS011;7827;53.594;9.938;2023-01-01T09:18:49;3.58;;;1.75;;
15451;SDS011;7827;53.594;9.938;2023-01-01T09:21:17;4.05;;;1.50;;
15451;SDS011;7827;53.594;9.938;2023-01-01T09:23:46;4.38;;;1.80;;
15451;SDS011;7827;53.594;9.938;2023-01-01T09:26:15;5.55;;;1.80;;
15451;SDS011;7827;53.594;9.938;2023-01-01T09:28:44;4.00;;;1.90;;
15451;SDS011;7827;53.594;9.938;2023-01-01T09:31:13;5.70;;;1.85;;
15451;SDS011;7827;53.594;9.938;2023-01-01T09:33:41;4.13;;;1.67;;
15451;SDS011;7827;53.594;9.938;2023-01-01T09:36:10;6.10;;;1.67;;
15451;SDS011;7827;53.594;9.938;2023-01-01T09:38:40;7.03;;;1.92;;
15451;SDS011;7827;53.594;9.938;2023-01-01T09:41:11;6.07;;;2.33;;
15451;SDS011;7827;53.594;9.938;2023-01-01T09:43:52;2.65;;;1.65;;
15451;SDS011;7827;53.594;9.938;2023-01-01T09:46:33;4.72;;;1.80;;
15451;SDS011;7827;53.594;9.938;2023-01-01T09:49:03;5.97;;;1.70;;
15451;SDS011;7827;53.594;9.938;2023-01-01T09:51:39;5.38;;;1.77;;
15451;SDS011;7827;53.594;9.938;2023-01-01T09:54:22;7.00;;;1.80;;
15451;SDS011;7827;53.594;9.938;2023-01-01T09:56:56;4.32;;;1.90;;
15451;SDS011;7827;53.594;9.938;2023-01-01T09:59:30;4.93;;;1.98;;
15451;SDS011;7827;53.594;9.938;2023-01-01T10:02:01;9.73;;;2.17;;
15451;SDS011;7827;53.594;9.938;2023-01-01T10:04:47;7.32;;;2.03;;
15451;SDS011;7827;53.594;9.938;2023-01-01T10:07:30;7.50;;;2.17;;
15451;SDS011;7827;53.594;9.938;2023-01-01T10:10:07;3.42;;;1.60;;
15451;SDS011;7827;53.594;9.938;2023-01-01T10:12:58;3.08;;;1.48;;
15451;SDS011;7827;53.594;9.938;2023-01-01T10:15:43;7.05;;;2.10;;
15451;SDS011;7827;53.594;9.938;2023-01-01T10:18:22;3.38;;;1.65;;
15451;SDS011;7827;53.594;9.938;2023-01-01T10:21:00;9.35;;;2.25;;
15451;SDS011;7827;53.594;9.938;2023-01-01T10:23:38;7.13;;;1.90;;
15451;SDS011;7827;53.594;9.938;2023-01-01T10:26:11;4.90;;;1.80;;
15451;SDS011;7827;53.594;9.938;2023-01-01T10:28:46;3.90;;;1.50;;
15451;SDS011;7827;53.594;9.938;2023-01-01T10:31:29;4.43;;;1.77;;
15451;SDS011;7827;53.594;9.938;2023-01-01T10:34:02;7.20;;;2.10;;
15451;SDS011;7827;53.594;9.938;2023-01-01T10:36:51;5.30;;;1.83;;
15451;SDS011;7827;53.594;9.938;2023-01-01T10:39:23;4.15;;;1.77;;
15451;SDS011;7827;53.594;9.938;2023-01-01T10:41:52;4.93;;;1.83;;
15451;SDS011;7827;53.594;9.938;2023-01-01T10:44:24;4.68;;;2.03;;
15451;SDS011;7827;53.594;9.938;2023-01-01T10:46:59;4.65;;;2.28;;
15451;SDS011;7827;53.594;9.938;2023-01-01T10:49:53;4.85;;;2.10;;
15451;SDS011;7827;53.594;9.938;2023-01-01T10:52:28;5.57;;;1.90;;
15451;SDS011;7827;53.594;9.938;2023-01-01T10:55:02;2.80;;;1.67;;
15451;SDS011;7827;53.594;9.938;2023-01-01T10:57:33;3.42;;;1.95;;
15451;SDS011;7827;53.594;9.938;2023-01-01T11:00:15;6.63;;;2.33;;
15451;SDS011;7827;53.594;9.938;2023-01-01T11:03:10;6.20;;;2.03;;
15451;SDS011;7827;53.594;9.938;2023-01-01T11:05:59;6.30;;;1.70;;
15451;SDS011;7827;53.594;9.938;2023-01-01T11:08:47;5.70;;;1.90;;
15451;SDS011;7827;53.594;9.938;2023-01-01T11:11:20;5.93;;;2.10;;
15451;SDS011;7827;53.594;9.938;2023-01-01T11:13:54;6.38;;;2.22;;
15451;SDS011;7827;53.594;9.938;2023-01-01T11:16:26;4.75;;;1.85;;
15451;SDS011;7827;53.594;9.938;2023-01-01T11:19:01;4.85;;;2.65;;
15451;SDS011;7827;53.594;9.938;2023-01-01T11:21:33;4.80;;;2.00;;
15451;SDS011;7827;53.594;9.938;2023-01-01T11:24:09;4.85;;;1.67;;
15451;SDS011;7827;53.594;9.938;2023-01-01T11:26:46;4.43;;;1.75;;
15451;SDS011;7827;53.594;9.938;2023-01-01T11:29:23;2.17;;;1.50;;
15451;SDS011;7827;53.594;9.938;2023-01-01T11:31:54;3.63;;;1.55;;
15451;SDS011;7827;53.594;9.938;2023-01-01T11:34:31;5.72;;;1.63;;
15451;SDS011;7827;53.594;9.938;2023-01-01T11:37:18;3.55;;;1.52;;
15451;SDS011;7827;53.594;9.938;2023-01-01T11:39:54;4.05;;;1.52;;
15451;SDS011;7827;53.594;9.938;2023-01-01T11:42:25;5.95;;;2.00;;
15451;SDS011;7827;53.594;9.938;2023-01-01T11:44:56;6.35;;;2.38;;
15451;SDS011;7827;53.594;9.938;2023-01-01T11:47:30;3.05;;;1.40;;
15451;SDS011;7827;53.594;9.938;2023-01-01T11:50:05;5.72;;;1.60;;
15451;SDS011;7827;53.594;9.938;2023-01-01T11:52:48;11.27;;;3.03;;
15451;SDS011;7827;53.594;9.938;2023-01-01T11:55:19;6.20;;;1.88;;
15451;SDS011;7827;53.594;9.938;2023-01-01T11:58:02;6.07;;;2.00;;
15451;SDS011;7827;53.594;9.938;2023-01-01T12:00:46;5.20;;;1.83;;
15451;SDS011;7827;53.594;9.938;2023-01-01T12:03:22;6.82;;;1.58;;
15451;SDS011;7827;53.594;9.938;2023-01-01T12:06:02;3.10;;;1.35;;
15451;SDS011;7827;53.594;9.938;2023-01-01T12:08:40;8.40;;;1.77;;
15451;SDS011;7827;53.594;9.938;2023-01-01T12:11:16;6.20;;;1.83;;
15451;SDS011;7827;53.594;9.938;2023-01-01T12:13:53;10.63;;;1.98;;
15451;SDS011;7827;53.594;9.938;2023-01-01T12:16:31;3.88;;;1.50;;
15451;SDS011;7827;53.594;9.938;2023-01-01T12:19:15;6.80;;;1.60;;
15451;SDS011;7827;53.594;9.938;2023-01-01T12:21:52;5.20;;;1.65;;
15451;SDS011;7827;53.594;9.938;2023-01-01T12:24:27;7.25;;;1.90;;
15451;SDS011;7827;53.594;9.938;2023-01-01T12:27:08;5.38;;;1.73;;
15451;SDS011;7827;53.594;9.938;2023-01-01T12:30:03;7.47;;;1.90;;
15451;SDS011;7827;53.594;9.938;2023-01-01T12:32:49;6.03;;;1.55;;
15451;SDS011;7827;53.594;9.938;2023-01-01T12:36:06;8.13;;;1.98;;
15451;SDS011;7827;53.594;9.938;2023-01-01T12:38:58;5.28;;;1.70;;
15451;SDS011;7827;53.594;9.938;2023-01-01T12:42:22;7.50;;;1.77;;
15451;SDS011;7827;53.594;9.938;2023-01-01T12:45:10;6.30;;;1.52;;
15451;SDS011;7827;53.594;9.938;2023-01-01T12:47:58;5.57;;;1.70;;
15451;SDS011;7827;53.594;9.938;2023-01-01T12:50:46;5.10;;;1.73;;
15451;SDS011;7827;53.594;9.938;2023-01-01T12:53:30;5.57;;;1.63;;
15451;SDS011;7827;53.594;9.938;2023-01-01T12:56:14;6.63;;;1.70;;
15451;SDS011;7827;53.594;9.938;2023-01-01T12:58:53;2.95;;;1.20;;
15451;SDS011;7827;53.594;9.938;2023-01-01T13:01:26;5.20;;;2.80;;
15451;SDS011;7827;53.594;9.938;2023-01-01T13:04:00;4.68;;;1.83;;
15451;SDS011;7827;53.594;9.938;2023-01-01T13:06:33;7.03;;;1.77;;
15451;SDS011;7827;53.594;9.938;2023-01-01T13:09:10;7.50;;;1.80;;
15451;SDS011;7827;53.594;9.938;2023-01-01T13:11:44;7.00;;;1.65;;
15451;SDS011;7827;53.594;9.938;2023-01-01T13:14:17;4.88;;;1.70;;
15451;SDS011;7827;53.594;9.938;2023-01-01T13:16:46;5.85;;;1.80;;
15451;SDS011;7827;53.594;9.938;2023-01-01T13:19:24;8.18;;;2.00;;
15451;SDS011;7827;53.594;9.938;2023-01-01T13:21:58;5.40;;;1.70;;
15451;SDS011;7827;53.594;9.938;2023-01-01T13:25:05;6.13;;;2.60;;
15451;SDS011;7827;53.594;9.938;2023-01-01T13:28:09;5.30;;;1.83;;
15451;SDS011;7827;53.594;9.938;2023-01-01T13:33:27;7.25;;;2.22;;
15451;SDS011;7827;53.594;9.938;2023-01-01T13:38:57;8.88;;;1.67;;
15451;SDS011;7827;53.594;9.938;2023-01-01T13:41:30;5.63;;;2.03;;
15451;SDS011;7827;53.594;9.938;2023-01-01T13:44:14;9.48;;;2.20;;
15451;SDS011;7827;53.594;9.938;2023-01-01T13:46:51;6.10;;;1.70;;
15451;SDS011;7827;53.594;9.938;2023-01-01T13:49:53;7.20;;;2.47;;
15451;SDS011;7827;53.594;9.938;2023-01-01T13:52:42;9.50;;;2.05;;
15451;SDS011;7827;53.594;9.938;2023-01-01T13:55:53;8.95;;;2.10;;
15451;SDS011;7827;53.594;9.938;2023-01-01T14:02:15;8.45;;;2.20;;
15451;SDS011;7827;53.594;9.938;2023-01-01T14:04:52;8.63;;;2.40;;
15451;SDS011;7827;53.594;9.938;2023-01-01T14:07:31;4.13;;;1.88;;
15451;SDS011;7827;53.594;9.938;2023-01-01T14:10:25;4.93;;;2.10;;
15451;SDS011;7827;53.594;9.938;2023-01-01T14:12:59;8.65;;;2.42;;
15451;SDS011;7827;53.594;9.938;2023-01-01T14:15:49;7.90;;;1.83;;
15451;SDS011;7827;53.594;9.938;2023-01-01T14:18:22;11.38;;;2.50;;
15451;SDS011;7827;53.594;9.938;2023-01-01T14:21:06;11.20;;;2.15;;
15451;SDS011;7827;53.594;9.938;2023-01-01T14:23:37;7.47;;;2.20;;
15451;SDS011;7827;53.594;9.938;2023-01-01T14:26:09;6.22;;;1.77;;
15451;SDS011;7827;53.594;9.938;2023-01-01T14:28:42;7.10;;;2.13;;
15451;SDS011;7827;53.594;9.938;2023-01-01T14:31:13;8.27;;;2.05;;
15451;SDS011;7827;53.594;9.938;2023-01-01T14:33:45;15.30;;;2.22;;
15451;SDS011;7827;53.594;9.938;2023-01-01T14:36:14;9.10;;;2.13;;
15451;SDS011;7827;53.594;9.938;2023-01-01T14:38:47;7.25;;;2.38;;
15451;SDS011;7827;53.594;9.938;2023-01-01T14:41:18;5.38;;;2.00;;
15451;SDS011;7827;53.594;9.938;2023-01-01T14:43:55;8.07;;;2.30;;
15451;SDS011;7827;53.594;9.938;2023-01-01T14:46:31;7.53;;;1.98;;
15451;SDS011;7827;53.594;9.938;2023-01-01T14:49:00;9.63;;;2.28;;
15451;SDS011;7827;53.594;9.938;2023-01-01T14:51:36;12.23;;;2.67;;
15451;SDS011;7827;53.594;9.938;2023-01-01T14:54:12;10.68;;;2.35;;
15451;SDS011;7827;53.594;9.938;2023-01-01T14:56:45;8.15;;;2.15;;
15451;SDS011;7827;53.594;9.938;2023-01-01T14:59:17;8.88;;;2.63;;
15451;SDS011;7827;53.594;9.938;2023-01-01T15:01:58;9.63;;;2.25;;
15451;SDS011;7827;53.594;9.938;2023-01-01T15:04:29;9.00;;;2.60;;
15451;SDS011;7827;53.594;9.938;2023-01-01T15:06:58;10.40;;;2.28;;
15451;SDS011;7827;53.594;9.938;2023-01-01T15:09:27;7.80;;;2.33;;
15451;SDS011;7827;53.594;9.938;2023-01-01T15:11:58;7.55;;;2.42;;
15451;SDS011;7827;53.594;9.938;2023-01-01T15:14:28;6.15;;;2.00;;
15451;SDS011;7827;53.594;9.938;2023-01-01T15:17:01;10.60;;;2.55;;
15451;SDS011;7827;53.594;9.938;2023-01-01T15:19:32;9.18;;;2.20;;
15451;SDS011;7827;53.594;9.938;2023-01-01T15:22:06;8.80;;;2.33;;
15451;SDS011;7827;53.594;9.938;2023-01-01T15:24:37;10.18;;;2.25;;
15451;SDS011;7827;53.594;9.938;2023-01-01T15:27:06;7.80;;;2.10;;
15451;SDS011;7827;53.594;9.938;2023-01-01T15:29:49;8.38;;;2.13;;
15451;SDS011;7827;53.594;9.938;2023-01-01T15:32:23;9.73;;;2.30;;
15451;SDS011;7827;53.594;9.938;2023-01-01T15:34:55;7.00;;;2.75;;
15451;SDS011;7827;53.594;9.938;2023-01-01T15:37:28;10.73;;;3.55;;
15451;SDS011;7827;53.594;9.938;2023-01-01T15:40:01;9.88;;;2.17;;
15451;SDS011;7827;53.594;9.938;2023-01-01T15:43:10;8.50;;;2.60;;
15451;SDS011;7827;53.594;9.938;2023-01-01T15:45:55;11.93;;;2.40;;
15451;SDS011;7827;53.594;9.938;2023-01-01T15:48:32;9.15;;;2.50;;